Time;durP1;ratioP1;P1;durP2;ratioP2;P2;SDS_P1;SDS_P2;PMS_P1;PMS_P2;Temp;Humidity;BMP_temperature;BMP_pressure;BME280_temperature;BME280_humidity;BME280_pressure;Samples;Min_cycle;Max_cycle;Signal;HPM_P1;HPM_P2
2021/10/18 08:58:37;;;;;;;9.00;4.40;;;11.80;73.30;;;;;;2350561;52;23018;-71
2021/10/18 09:01:03;;;;;;;9.77;4.68;;;11.80;73.40;;;;;;2363896;53;21061;-71
2021/10/18 09:03:32;;;;;;;10.05;4.60;;;11.80;73.40;;;;;;2336042;53;21071;-71
2021/10/18 09:07:49;;;;;;;8.60;4.20;;;11.90;73.50;;;;;;2337954;53;20982;-72
2021/10/18 09:10:16;;;;;;;10.70;4.80;;;11.90;72.60;;;;;;2309888;53;21063;-73
2021/10/18 09:12:44;;;;;;;7.78;4.15;;;12.00;73.40;;;;;;2339880;54;21903;-72
2021/10/18 09:15:21;;;;;;;9.55;4.00;;;12.00;73.40;;;;;;2343401;53;20943;-72
2021/10/18 09:17:55;;;;;;;9.82;4.95;;;12.00;73.20;;;;;;2418939;53;20957;-73
2021/10/18 09:20:28;;;;;;;9.23;4.30;;;12.00;73.20;;;;;;2341215;53;21804;-71
2021/10/18 09:23:37;;;;;;;10.55;5.47;;;12.00;73.20;;;;;;2320562;54;21093;-71
2021/10/18 09:26:10;;;;;;;8.35;4.53;;;12.10;73.00;;;;;;2417580;53;21090;-72
2021/10/18 09:28:37;;;;;;;8.35;3.83;;;12.10;73.80;;;;;;2508776;53;21036;-72
2021/10/18 09:31:03;;;;;;;7.28;3.83;;;12.10;73.30;;;;;;2345763;54;20925;-72
2021/10/18 09:33:40;;;;;;;7.87;3.90;;;12.10;73.50;;;;;;2340662;53;20976;-72
2021/10/18 09:36:13;;;;;;;9.70;4.20;;;12.20;73.60;;;;;;2309334;54;20990;-72
2021/10/18 09:38:40;;;;;;;7.22;3.90;;;12.20;73.50;;;;;;2349752;53;21038;-72
2021/10/18 09:41:07;;;;;;;8.00;4.70;;;12.30;73.60;;;;;;2316846;55;21004;-71
2021/10/18 09:44:12;;;;;;;7.40;4.15;;;12.30;73.50;;;;;;2326149;54;20950;-72
2021/10/18 09:46:56;;;;;;;10.40;4.85;;;12.30;72.90;;;;;;2302803;54;20967;-71
2021/10/18 10:52:57;;;;;;;7.00;3.97;;;13.10;73.60;;;;;;2331217;54;21052;-71
2021/10/18 10:55:34;;;;;;;7.87;4.07;;;13.20;73.10;;;;;;2325432;53;21030;-70
2021/10/18 10:58:03;;;;;;;8.90;4.50;;;13.30;73.40;;;;;;2372744;54;24792;-73
2021/10/18 11:00:39;;;;;;;7.60;3.87;;;13.30;73.60;;;;;;2359482;53;21094;-73
2021/10/18 11:06:53;;;;;;;8.05;4.07;;;13.30;74.00;;;;;;2413231;53;21393;-71
2021/10/18 11:09:46;;;;;;;7.03;3.72;;;13.50;72.90;;;;;;2353028;52;21597;-70
2021/10/18 11:12:24;;;;;;;9.63;4.78;;;13.50;73.30;;;;;;2346692;53;20933;-72
2021/10/18 11:15:05;;;;;;;8.40;4.53;;;13.60;73.40;;;;;;2386004;52;21776;-73
2021/10/18 11:17:39;;;;;;;9.98;5.22;;;13.60;73.30;;;;;;2314161;54;20989;-72
2021/10/18 11:20:29;;;;;;;9.25;4.78;;;13.60;73.50;;;;;;2417625;53;21000;-73
2021/10/18 11:22:56;;;;;;;8.35;4.72;;;13.70;73.70;;;;;;2344034;53;20950;-73
2021/10/18 11:25:28;;;;;;;8.25;4.78;;;13.70;73.70;;;;;;2490258;52;20907;-73
2021/10/18 11:27:58;;;;;;;9.75;4.65;;;13.80;73.70;;;;;;2338256;53;21832;-72
2021/10/18 11:30:26;;;;;;;10.13;5.30;;;13.80;73.50;;;;;;2592206;52;21754;-73
2021/10/18 11:33:00;;;;;;;9.70;5.18;;;13.80;73.50;;;;;;2344531;53;20968;-73
2021/10/18 11:35:32;;;;;;;9.43;4.93;;;13.90;73.30;;;;;;2389846;52;20991;-73
2021/10/18 11:38:09;;;;;;;11.10;6.68;;;13.90;73.30;;;;;;2338584;53;21001;-72
2021/10/18 11:40:44;;;;;;;11.48;5.68;;;13.90;72.90;;;;;;2335317;52;20929;-71
2021/10/18 11:43:11;;;;;;;11.75;7.40;;;14.00;73.30;;;;;;2323357;53;20992;-72
2021/10/18 11:45:42;;;;;;;10.57;5.97;;;14.00;73.40;;;;;;2414045;53;21741;-72
2021/10/18 11:48:12;;;;;;;10.20;6.07;;;14.00;73.20;;;;;;2316439;54;20963;-72
2021/10/18 11:50:43;;;;;;;9.90;5.57;;;14.10;73.10;;;;;;2358999;53;21507;-72
2021/10/18 11:53:29;;;;;;;11.35;6.80;;;14.10;72.80;;;;;;2477138;52;20961;-71
2021/10/18 11:56:09;;;;;;;9.57;5.07;;;14.10;72.80;;;;;;2332447;54;21004;-72
2021/10/18 11:58:39;;;;;;;9.25;5.28;;;14.10;72.90;;;;;;2382327;52;21078;-71
2021/10/18 12:01:06;;;;;;;8.95;4.75;;;14.10;72.90;;;;;;2348090;52;21046;-73
2021/10/18 12:03:33;;;;;;;8.93;5.00;;;14.10;73.20;;;;;;2354954;53;20966;-71
2021/10/18 12:06:03;;;;;;;10.30;4.72;;;14.20;73.40;;;;;;2449058;52;20992;-73
2021/10/18 12:08:30;;;;;;;10.80;5.68;;;14.20;73.40;;;;;;2332639;53;20933;-72
2021/10/18 12:10:57;;;;;;;9.05;5.15;;;14.30;73.50;;;;;;2436056;52;21038;-72
2021/10/18 12:13:33;;;;;;;10.95;5.05;;;14.30;73.50;;;;;;2348287;53;21006;-72
2021/10/18 12:16:22;;;;;;;9.25;5.00;;;14.40;73.30;;;;;;2391755;52;21770;-72
2021/10/18 12:19:06;;;;;;;8.88;5.03;;;14.40;72.70;;;;;;2361377;53;21059;-72
2021/10/18 12:21:41;;;;;;;9.00;4.90;;;14.50;72.90;;;;;;2536505;53;20901;-73
2021/10/18 12:24:17;;;;;;;8.57;4.68;;;14.50;73.50;;;;;;2348568;53;20986;-72
2021/10/18 12:26:48;;;;;;;9.50;5.20;;;14.60;73.10;;;;;;2351062;53;21022;-71
2021/10/18 12:29:17;;;;;;;9.73;5.28;;;14.60;73.30;;;;;;2352083;53;21034;-72
2021/10/18 12:31:56;;;;;;;9.35;5.12;;;14.60;73.30;;;;;;2435104;52;21029;-72
2021/10/18 12:34:26;;;;;;;11.52;5.28;;;14.70;73.30;;;;;;2366115;53;21931;-72
2021/10/18 12:37:11;;;;;;;10.48;5.47;;;14.70;73.20;;;;;;2331707;53;21441;-73
2021/10/18 12:39:46;;;;;;;9.60;5.70;;;14.80;72.60;;;;;;2344604;53;21089;-73
2021/10/18 12:44:51;;;;;;;10.88;5.90;;;14.80;72.70;;;;;;2328606;54;20976;-71
2021/10/18 12:47:24;;;;;;;7.45;3.95;;;14.80;71.70;;;;;;2498377;52;21031;-71
2021/10/18 12:50:11;;;;;;;9.35;4.87;;;14.80;72.50;;;;;;2522079;52;21002;-72
2021/10/18 12:52:41;;;;;;;10.30;5.07;;;14.80;72.50;;;;;;2401435;52;20977;-72
2021/10/18 12:55:19;;;;;;;9.93;4.70;;;14.90;72.60;;;;;;2386672;52;21139;-72
2021/10/18 12:57:49;;;;;;;9.18;4.80;;;14.90;72.40;;;;;;2321496;54;20948;-72
2021/10/18 13:00:27;;;;;;;9.77;5.62;;;14.90;72.40;;;;;;2383929;53;20996;-72
2021/10/18 13:02:54;;;;;;;10.75;5.72;;;14.90;72.20;;;;;;2350745;53;21553;-72
2021/10/18 13:05:30;;;;;;;10.75;6.07;;;14.90;72.60;;;;;;2354431;52;20987;-71
2021/10/18 13:07:58;;;;;;;9.98;5.62;;;14.90;72.40;;;;;;2338754;53;21184;-72
2021/10/18 13:10:39;;;;;;;9.10;5.28;;;14.90;72.90;;;;;;2355274;53;20966;-72
2021/10/18 13:13:07;;;;;;;10.30;5.65;;;14.90;73.00;;;;;;2350819;53;21020;-72
2021/10/18 13:15:34;;;;;;;9.40;5.47;;;15.00;73.30;;;;;;2351233;53;21546;-71
2021/10/18 13:18:02;;;;;;;10.32;5.47;;;15.00;73.40;;;;;;2493115;52;20970;-72
2021/10/18 13:20:29;;;;;;;8.35;5.25;;;15.10;73.50;;;;;;2340173;53;21009;-72
2021/10/18 13:22:58;;;;;;;10.00;6.30;;;15.10;73.60;;;;;;2348302;53;21031;-72
2021/10/18 13:25:29;;;;;;;11.48;6.55;;;15.20;73.70;;;;;;2347892;53;21226;-72
2021/10/18 13:27:56;;;;;;;11.13;6.77;;;15.20;73.60;;;;;;2348711;53;21024;-72
2021/10/18 13:30:29;;;;;;;12.30;6.68;;;15.30;73.70;;;;;;2329797;54;21037;-71
2021/10/18 13:32:55;;;;;;;10.77;6.20;;;15.30;73.00;;;;;;2325571;54;21850;-72
2021/10/18 13:35:22;;;;;;;10.23;6.20;;;15.40;72.90;;;;;;2320487;54;21013;-73
2021/10/18 13:37:49;;;;;;;10.93;6.15;;;15.50;73.20;;;;;;2320779;54;22197;-72
2021/10/18 13:40:16;;;;;;;11.05;5.65;;;15.40;72.80;;;;;;2400654;53;20924;-73
2021/10/18 13:42:43;;;;;;;10.55;6.30;;;15.40;72.50;;;;;;2339143;53;21555;-72
2021/10/18 13:45:13;;;;;;;10.13;5.97;;;15.40;72.50;;;;;;2375133;53;21427;-72
2021/10/18 13:47:39;;;;;;;9.75;5.85;;;15.50;72.70;;;;;;2351577;53;20999;-73
2021/10/18 13:50:07;;;;;;;10.25;6.03;;;15.50;72.90;;;;;;2377384;53;21029;-72
2021/10/18 13:52:33;;;;;;;10.25;6.28;;;15.50;72.80;;;;;;2410501;52;21440;-72
2021/10/18 13:55:01;;;;;;;12.35;6.68;;;15.50;72.60;;;;;;2362397;53;21033;-72
2021/10/18 13:57:31;;;;;;;10.73;6.32;;;15.60;72.90;;;;;;2368514;53;20980;-72
2021/10/18 13:59:58;;;;;;;11.77;6.90;;;15.60;73.10;;;;;;2344563;54;21072;-71
2021/10/18 14:02:27;;;;;;;10.50;6.00;;;15.60;72.90;;;;;;2329637;54;20973;-72
2021/10/18 14:04:53;;;;;;;13.60;7.82;;;15.70;72.80;;;;;;2435785;53;20980;-71
2021/10/18 14:07:21;;;;;;;13.45;6.70;;;15.70;72.60;;;;;;2325691;54;20988;-74
2021/10/18 14:09:51;;;;;;;12.13;7.30;;;15.70;72.50;;;;;;2429305;53;21015;-75
2021/10/18 14:12:17;;;;;;;10.70;6.65;;;15.70;72.40;;;;;;2338695;54;21968;-74
2021/10/18 14:14:44;;;;;;;11.38;6.68;;;15.70;72.30;;;;;;2330463;54;21054;-76
2021/10/18 14:17:10;;;;;;;12.65;6.93;;;15.80;72.30;;;;;;2396634;52;20957;-73
2021/10/18 14:19:36;;;;;;;13.43;7.30;;;15.80;72.00;;;;;;2338450;53;21000;-72
2021/10/18 14:22:04;;;;;;;12.37;7.95;;;15.70;71.60;;;;;;2335901;53;20974;-71
2021/10/18 14:24:33;;;;;;;13.80;8.40;;;15.70;71.70;;;;;;2397064;52;21798;-74
2021/10/18 14:27:00;;;;;;;15.35;9.07;;;15.70;72.00;;;;;;2340584;53;21327;-72
2021/10/18 14:29:27;;;;;;;14.82;9.68;;;15.70;72.10;;;;;;2330308;54;21732;-72
2021/10/18 14:31:53;;;;;;;13.57;8.88;;;15.70;72.10;;;;;;2349168;53;20947;-72
2021/10/18 14:34:21;;;;;;;13.95;9.23;;;15.80;72.10;;;;;;2389946;53;21565;-72
2021/10/18 14:36:50;;;;;;;16.55;10.75;;;15.80;71.90;;;;;;2320983;54;20948;-73
2021/10/18 14:39:18;;;;;;;15.32;10.05;;;15.80;71.60;;;;;;2325123;54;21107;-72
2021/10/18 14:41:45;;;;;;;14.95;9.30;;;15.70;71.10;;;;;;2323941;54;20991;-72
2021/10/18 14:44:13;;;;;;;15.35;8.98;;;15.70;71.00;;;;;;2443594;52;21468;-72
2021/10/18 14:46:40;;;;;;;12.80;8.48;;;15.60;71.40;;;;;;2338857;53;20966;-73
2021/10/18 14:49:08;;;;;;;13.23;8.68;;;15.60;70.70;;;;;;2344994;53;20979;-71
2021/10/18 14:51:36;;;;;;;13.62;8.93;;;15.50;70.50;;;;;;2328050;54;21556;-71
2021/10/18 14:54:04;;;;;;;11.32;7.30;;;15.40;70.50;;;;;;2330622;53;20953;-72
2021/10/18 14:56:30;;;;;;;11.55;7.20;;;15.40;70.70;;;;;;2327343;54;21120;-72
2021/10/18 14:58:57;;;;;;;14.38;8.70;;;15.30;70.80;;;;;;2388258;52;20934;-73
2021/10/18 15:01:24;;;;;;;13.85;8.13;;;15.30;70.90;;;;;;2331688;53;20978;-72
2021/10/18 15:03:54;;;;;;;14.52;7.87;;;15.30;70.80;;;;;;2355407;53;21063;-72
2021/10/18 15:06:22;;;;;;;12.73;7.78;;;15.20;70.70;;;;;;2350265;53;21051;-73
2021/10/18 15:08:48;;;;;;;12.35;7.68;;;15.20;70.70;;;;;;2354101;53;20979;-72
2021/10/18 15:11:15;;;;;;;14.70;7.90;;;15.10;70.80;;;;;;2353023;53;21684;-73
2021/10/18 15:13:43;;;;;;;12.50;6.65;;;15.10;71.00;;;;;;2351205;53;20922;-71
2021/10/18 15:16:10;;;;;;;10.77;6.40;;;15.00;70.90;;;;;;2348531;52;21005;-75
2021/10/18 15:18:36;;;;;;;10.98;6.50;;;15.00;70.90;;;;;;2380163;53;20991;-75
2021/10/18 15:21:03;;;;;;;12.60;7.25;;;15.00;70.90;;;;;;2377795;53;21003;-71
2021/10/18 15:23:30;;;;;;;12.07;6.65;;;14.90;71.00;;;;;;2325537;54;21031;-73
2021/10/18 15:25:58;;;;;;;11.88;6.78;;;14.90;71.00;;;;;;2329016;54;21028;-72
2021/10/18 15:28:24;;;;;;;12.25;7.30;;;14.90;71.00;;;;;;2348219;53;20943;-72
2021/10/18 15:30:51;;;;;;;13.65;7.62;;;14.80;71.00;;;;;;2360893;53;21065;-72
2021/10/18 15:33:17;;;;;;;11.48;6.93;;;14.80;71.00;;;;;;2346416;53;20979;-71
2021/10/18 15:35:43;;;;;;;12.88;7.45;;;14.80;71.20;;;;;;2432046;53;20935;-73
2021/10/18 15:38:10;;;;;;;13.50;7.72;;;14.80;71.40;;;;;;2351068;53;20938;-73
2021/10/18 15:40:36;;;;;;;13.43;7.82;;;14.70;71.30;;;;;;2348519;53;21027;-71
2021/10/18 15:43:03;;;;;;;13.68;7.53;;;14.80;71.30;;;;;;2348647;53;20950;-71
2021/10/18 15:45:31;;;;;;;12.00;7.20;;;14.70;71.90;;;;;;2355093;53;21016;-69
2021/10/18 15:48:00;;;;;;;13.45;7.78;;;14.70;71.10;;;;;;2357052;53;20995;-73
2021/10/18 15:50:28;;;;;;;14.02;7.53;;;14.60;71.10;;;;;;2345748;53;20948;-73
2021/10/18 15:52:54;;;;;;;13.13;7.45;;;14.60;71.20;;;;;;2326997;53;21531;-72
2021/10/18 15:55:21;;;;;;;14.05;7.28;;;14.60;71.40;;;;;;2413252;52;21058;-70
2021/10/18 15:57:47;;;;;;;11.63;6.40;;;14.60;71.50;;;;;;2351117;53;20950;-73
2021/10/18 16:00:15;;;;;;;11.40;6.25;;;14.60;71.40;;;;;;2355811;53;20966;-72
2021/10/18 16:02:44;;;;;;;12.25;6.85;;;14.50;71.20;;;;;;2328079;54;20969;-72
2021/10/18 16:05:11;;;;;;;13.90;7.97;;;14.50;71.10;;;;;;2320508;54;20885;-75
2021/10/18 16:07:37;;;;;;;15.30;8.18;;;14.50;71.00;;;;;;2332837;53;21034;-70
2021/10/18 16:10:04;;;;;;;12.32;7.50;;;14.50;70.90;;;;;;2428612;53;20954;-73
2021/10/18 16:12:31;;;;;;;13.10;7.50;;;14.40;70.70;;;;;;2337722;53;20944;-73
2021/10/18 16:14:57;;;;;;;13.55;7.43;;;14.40;70.60;;;;;;2326691;54;21031;-73
2021/10/18 16:17:23;;;;;;;14.40;7.10;;;14.30;70.50;;;;;;2341462;53;21032;-72
2021/10/18 16:19:50;;;;;;;13.52;7.65;;;14.20;70.50;;;;;;2345169;53;21207;-71
2021/10/18 16:22:19;;;;;;;11.75;6.80;;;14.20;70.50;;;;;;2348334;53;21806;-74
2021/10/18 16:24:47;;;;;;;11.93;6.70;;;14.20;70.50;;;;;;2453106;52;21027;-73
2021/10/18 16:27:13;;;;;;;12.60;7.30;;;14.10;70.40;;;;;;2345240;53;21449;-72
2021/10/18 16:29:40;;;;;;;16.15;8.65;;;14.00;70.40;;;;;;2353028;52;21013;-73
2021/10/18 16:32:06;;;;;;;11.88;6.90;;;14.00;70.60;;;;;;2350939;53;21010;-73
2021/10/18 16:34:32;;;;;;;12.65;7.18;;;13.90;70.60;;;;;;2507418;52;21098;-74
2021/10/18 16:36:59;;;;;;;12.90;7.22;;;13.90;70.70;;;;;;2428624;53;21035;-75
2021/10/18 16:39:25;;;;;;;12.60;7.20;;;13.80;70.70;;;;;;2346691;53;20925;-76
2021/10/18 16:41:57;;;;;;;12.43;7.18;;;13.80;70.70;;;;;;2319743;54;20962;-75
2021/10/18 16:44:26;;;;;;;12.50;7.22;;;13.70;70.60;;;;;;2322504;54;21089;-74
2021/10/18 16:46:53;;;;;;;12.55;7.70;;;13.70;70.80;;;;;;2323793;54;21805;-77
2021/10/18 16:49:19;;;;;;;15.27;9.15;;;13.70;70.90;;;;;;2437876;53;21454;-76
2021/10/18 16:51:51;;;;;;;14.07;8.93;;;13.70;71.00;;;;;;2346987;53;21861;-73
2021/10/18 16:54:20;;;;;;;13.13;8.45;;;13.60;71.00;;;;;;2338264;53;20953;-75
2021/10/18 16:56:46;;;;;;;13.90;9.52;;;13.60;71.80;;;;;;2338255;53;21029;-74
2021/10/18 16:59:13;;;;;;;11.70;7.47;;;13.60;71.20;;;;;;2340680;53;21880;-73
2021/10/18 17:01:42;;;;;;;11.07;7.22;;;13.60;71.20;;;;;;2343740;54;21496;-75
2021/10/18 17:04:09;;;;;;;11.20;6.82;;;13.50;71.10;;;;;;2408117;53;21801;-74
2021/10/18 17:06:38;;;;;;;12.37;7.68;;;13.50;70.90;;;;;;2321345;54;21082;-73
2021/10/18 17:09:05;;;;;;;13.07;7.15;;;13.50;70.80;;;;;;2409678;53;20965;-77
2021/10/18 17:11:32;;;;;;;10.20;6.45;;;13.40;70.70;;;;;;2327113;54;20961;-75
2021/10/18 17:14:05;;;;;;;15.10;8.10;;;13.40;70.60;;;;;;2334387;53;21047;-75
2021/10/18 17:16:32;;;;;;;;;;;13.40;70.80;;;;;;2333883;54;21151;-75
2021/10/18 17:19:04;;;;;;;10.05;6.50;;;13.30;69.90;;;;;;2359136;53;20085;-74
2021/10/18 17:21:31;;;;;;;;;;;13.30;70.70;;;;;;2373887;52;21102;-75
2021/10/18 17:23:58;;;;;;;10.98;6.60;;;13.20;69.80;;;;;;2343277;53;20242;-75
2021/10/18 17:26:24;;;;;;;14.90;8.55;;;13.20;70.50;;;;;;2323604;54;21487;-72
2021/10/18 17:28:51;;;;;;;14.30;8.77;;;13.10;70.40;;;;;;2344200;53;20994;-75
2021/10/18 17:31:21;;;;;;;13.82;9.25;;;13.10;70.40;;;;;;2349503;53;20906;-74
2021/10/18 17:33:52;;;;;;;12.65;8.57;;;13.00;70.10;;;;;;2339290;53;20983;-75
2021/10/18 17:36:19;;;;;;;11.05;7.05;;;12.90;69.90;;;;;;2345468;53;21014;-71
2021/10/18 17:38:46;;;;;;;10.88;6.90;;;12.90;70.00;;;;;;2368125;53;20942;-73
2021/10/18 17:41:13;;;;;;;11.48;7.10;;;12.80;70.00;;;;;;2357154;53;21511;-71
2021/10/18 17:43:39;;;;;;;11.45;7.20;;;12.80;70.20;;;;;;2356993;53;21808;-71
2021/10/18 17:46:06;;;;;;;12.85;8.25;;;12.70;70.30;;;;;;2422540;53;21076;-71
2021/10/18 17:48:34;;;;;;;11.20;7.68;;;12.60;70.50;;;;;;2455884;53;21042;-72
2021/10/18 17:51:01;;;;;;;12.27;7.43;;;12.60;70.70;;;;;;2354257;53;20962;-75
2021/10/18 17:53:28;;;;;;;11.95;8.00;;;12.60;71.00;;;;;;2350158;53;20967;-72
2021/10/18 17:55:54;;;;;;;15.98;9.35;;;12.60;71.20;;;;;;2338781;53;21013;-72
2021/10/18 17:58:21;;;;;;;15.18;8.70;;;12.50;71.10;;;;;;2332446;53;21055;-73
2021/10/18 18:00:48;;;;;;;12.68;7.80;;;12.50;71.10;;;;;;2333131;53;20966;-71
2021/10/18 18:03:14;;;;;;;13.30;7.85;;;12.50;71.10;;;;;;2320806;54;20974;-72
2021/10/18 18:05:41;;;;;;;14.20;8.85;;;12.50;71.10;;;;;;2320468;54;21081;-75
2021/10/18 18:08:08;;;;;;;12.70;8.32;;;12.40;71.00;;;;;;2357818;53;21052;-75
2021/10/18 18:10:35;;;;;;;13.32;8.10;;;12.40;71.00;;;;;;2325730;53;20950;-73
2021/10/18 18:13:01;;;;;;;13.07;8.65;;;12.40;71.00;;;;;;2392028;53;20975;-75
2021/10/18 18:15:28;;;;;;;13.18;8.38;;;12.40;71.00;;;;;;2413607;53;21079;-76
2021/10/18 18:17:55;;;;;;;13.25;8.00;;;12.30;70.80;;;;;;2330306;53;21090;-73
2021/10/18 18:20:21;;;;;;;15.68;8.50;;;12.30;70.90;;;;;;2349733;53;20980;-72
2021/10/18 18:22:48;;;;;;;12.77;7.87;;;12.30;70.80;;;;;;2368524;53;21022;-72
2021/10/18 18:25:15;;;;;;;12.23;8.23;;;12.30;70.80;;;;;;2352072;53;21125;-73
2021/10/18 18:27:42;;;;;;;12.35;7.80;;;12.20;70.80;;;;;;2343043;53;20974;-73
2021/10/18 18:30:10;;;;;;;12.95;8.73;;;12.20;71.00;;;;;;2417531;52;21746;-72
2021/10/18 18:32:38;;;;;;;12.85;8.45;;;12.10;71.00;;;;;;2347204;53;20945;-73
2021/10/18 18:35:09;;;;;;;14.77;8.80;;;12.10;71.20;;;;;;2344428;54;21020;-75
2021/10/18 18:37:36;;;;;;;16.20;9.38;;;12.10;71.30;;;;;;2523749;52;20917;-71
2021/10/18 18:40:03;;;;;;;18.33;10.18;;;12.10;71.50;;;;;;2338567;53;21798;-75
2021/10/18 18:42:30;;;;;;;16.80;9.85;;;12.10;71.60;;;;;;2329408;54;21013;-72
2021/10/18 18:44:56;;;;;;;14.60;8.60;;;12.10;71.70;;;;;;2324539;54;21727;-70
2021/10/18 18:47:23;;;;;;;16.12;9.52;;;12.00;71.70;;;;;;2353503;53;21026;-72
2021/10/18 18:49:50;;;;;;;18.70;10.27;;;12.00;71.90;;;;;;2354625;54;20945;-72
2021/10/18 18:52:18;;;;;;;12.40;8.02;;;12.00;72.00;;;;;;2322664;54;21025;-72
2021/10/18 18:54:46;;;;;;;13.30;7.95;;;12.00;72.20;;;;;;2324554;54;20990;-74
2021/10/18 18:57:13;;;;;;;14.45;9.02;;;12.10;72.50;;;;;;2512564;52;21004;-71
2021/10/18 18:59:40;;;;;;;14.93;9.27;;;12.00;72.60;;;;;;2381916;53;20992;-73
2021/10/18 19:02:08;;;;;;;12.90;8.30;;;12.10;72.80;;;;;;2324714;54;21067;-71
2021/10/18 19:04:37;;;;;;;13.62;8.50;;;12.10;72.90;;;;;;2325804;54;20953;-71
2021/10/18 19:07:06;;;;;;;13.98;8.75;;;12.10;72.90;;;;;;2341867;53;20955;-72
2021/10/18 19:09:32;;;;;;;13.98;8.45;;;12.10;72.90;;;;;;2343913;53;20935;-72
2021/10/18 19:12:02;;;;;;;12.20;7.65;;;12.20;73.00;;;;;;2401169;52;21468;-73
2021/10/18 19:14:28;;;;;;;14.05;7.90;;;12.20;72.90;;;;;;2369160;53;20949;-72
2021/10/18 19:16:56;;;;;;;14.45;8.57;;;12.20;72.90;;;;;;2354641;53;20935;-73
2021/10/18 19:19:22;;;;;;;17.27;8.88;;;12.20;72.80;;;;;;2335629;54;20941;-73
2021/10/18 19:21:50;;;;;;;15.32;9.10;;;12.20;72.70;;;;;;2352162;53;21556;-70
2021/10/18 19:24:16;;;;;;;14.85;8.15;;;12.20;72.60;;;;;;2444662;52;20996;-73
2021/10/18 19:26:43;;;;;;;15.95;9.77;;;12.20;72.60;;;;;;2379099;53;21035;-72
2021/10/18 19:29:09;;;;;;;20.62;11.48;;;12.20;72.70;;;;;;2362612;53;20941;-72
2021/10/18 19:31:36;;;;;;;19.02;10.35;;;12.20;72.80;;;;;;2327283;54;20963;-71
2021/10/18 19:34:02;;;;;;;15.52;9.68;;;12.20;72.90;;;;;;2399403;53;20999;-71
2021/10/18 19:36:29;;;;;;;16.65;10.20;;;12.30;73.00;;;;;;2405404;53;21674;-72
2021/10/18 19:38:58;;;;;;;14.87;9.00;;;12.30;73.10;;;;;;2349024;53;21017;-70
2021/10/18 19:41:25;;;;;;;13.27;7.80;;;12.30;73.20;;;;;;2348011;53;21059;-72
2021/10/18 19:43:51;;;;;;;17.95;8.57;;;12.20;73.20;;;;;;2345237;53;21505;-72
2021/10/18 19:46:17;;;;;;;21.17;9.70;;;12.30;73.30;;;;;;2341014;54;21140;-73
2021/10/18 19:48:44;;;;;;;11.93;8.02;;;12.30;73.20;;;;;;2321886;54;20956;-71
2021/10/18 19:51:10;;;;;;;16.58;9.27;;;12.30;73.10;;;;;;2333893;54;20939;-72
2021/10/18 19:53:36;;;;;;;15.23;8.70;;;12.30;72.90;;;;;;2455646;52;21733;-73
2021/10/18 19:56:07;;;;;;;17.48;8.88;;;12.30;72.80;;;;;;2349246;53;20945;-72
2021/10/18 19:58:34;;;;;;;19.40;8.52;;;12.30;72.60;;;;;;2324386;54;21518;-72
2021/10/18 20:01:00;;;;;;;19.80;9.55;;;12.30;72.40;;;;;;2311619;54;20969;-71
2021/10/18 20:03:26;;;;;;;16.17;8.50;;;12.30;72.20;;;;;;2343142;53;21086;-73
2021/10/18 20:05:53;;;;;;;14.90;8.35;;;12.30;72.10;;;;;;2336922;53;20909;-73
2021/10/18 20:08:19;;;;;;;13.05;6.95;;;12.30;72.00;;;;;;2323199;54;21562;-71
2021/10/18 20:10:46;;;;;;;13.98;8.80;;;12.30;72.00;;;;;;2324415;54;20949;-71
2021/10/18 20:13:15;;;;;;;16.10;7.68;;;12.20;72.00;;;;;;2319927;54;21036;-70
2021/10/18 20:15:42;;;;;;;12.48;7.37;;;12.20;72.00;;;;;;2332765;53;21028;-70
2021/10/18 20:18:09;;;;;;;16.35;8.07;;;12.20;72.00;;;;;;2344578;53;20958;-73
2021/10/18 20:20:36;;;;;;;11.82;7.80;;;12.20;71.90;;;;;;2350400;53;20981;-70
2021/10/18 20:23:07;;;;;;;12.88;7.85;;;12.20;71.80;;;;;;2411327;52;20977;-73
2021/10/18 20:25:34;;;;;;;13.02;7.43;;;12.10;71.70;;;;;;2360562;53;20961;-70
2021/10/18 20:28:00;;;;;;;15.50;7.55;;;12.10;71.60;;;;;;2327139;54;21005;-74
2021/10/18 20:30:41;;;;;;;12.48;7.93;;;12.10;71.50;;;;;;2349840;53;21033;-71
2021/10/18 20:33:09;;;;;;;10.82;7.10;;;12.10;71.20;;;;;;2338243;53;20949;-72
2021/10/18 20:35:36;;;;;;;10.82;6.55;;;12.00;71.40;;;;;;2336345;53;20959;-74
2021/10/18 20:38:05;;;;;;;12.25;8.00;;;12.00;71.40;;;;;;2443934;52;21042;-71
2021/10/18 20:40:32;;;;;;;12.98;8.10;;;11.90;71.30;;;;;;2325414;54;21475;-73
2021/10/18 20:43:01;;;;;;;13.05;7.28;;;12.00;71.40;;;;;;2330844;53;21062;-73
2021/10/18 20:45:32;;;;;;;10.70;7.20;;;11.90;71.30;;;;;;2344646;53;21047;-74
2021/10/18 20:47:59;;;;;;;12.85;7.75;;;11.90;71.40;;;;;;2335575;53;20977;-73
2021/10/18 20:50:25;;;;;;;11.85;7.97;;;11.80;71.40;;;;;;2334383;53;20970;-73
2021/10/18 20:53:04;;;;;;;13.27;7.87;;;11.80;71.40;;;;;;2340294;54;20975;-71
2021/10/18 20:55:30;;;;;;;20.83;7.75;;;11.80;71.40;;;;;;2336818;54;20928;-72
2021/10/18 20:57:59;;;;;;;12.32;7.87;;;11.70;71.40;;;;;;2359217;56;21938;-71
2021/10/18 21:00:25;;;;;;;19.95;8.25;;;11.70;71.30;;;;;;2395966;52;21062;-72
2021/10/18 21:02:54;;;;;;;19.02;7.03;;;11.70;71.30;;;;;;2361452;53;21570;-72
2021/10/18 21:05:21;;;;;;;16.40;7.40;;;11.60;71.30;;;;;;2398483;53;21776;-71
2021/10/18 21:07:47;;;;;;;9.68;6.62;;;11.60;71.50;;;;;;2348663;53;20937;-71
2021/10/18 21:10:15;;;;;;;11.23;6.57;;;11.60;71.90;;;;;;2344034;53;21429;-70
2021/10/18 21:12:42;;;;;;;12.82;6.45;;;11.60;72.20;;;;;;2342877;53;21049;-71
2021/10/18 21:15:09;;;;;;;21.95;6.55;;;11.50;72.30;;;;;;2324675;54;22067;-71
2021/10/18 21:17:35;;;;;;;18.48;7.45;;;11.60;72.70;;;;;;2347766;53;22590;-72
2021/10/18 21:20:02;;;;;;;15.32;7.97;;;11.60;72.70;;;;;;2336107;53;21037;-70
2021/10/18 21:22:28;;;;;;;11.05;7.03;;;11.60;72.80;;;;;;2580042;52;22161;-73
2021/10/18 21:24:56;;;;;;;14.02;6.90;;;11.60;72.80;;;;;;2356094;53;21043;-70
2021/10/18 21:27:23;;;;;;;15.27;7.45;;;11.60;72.80;;;;;;2318190;54;20993;-74
2021/10/18 21:29:49;;;;;;;13.60;6.80;;;11.60;72.80;;;;;;2318836;54;20956;-70
2021/10/18 21:32:15;;;;;;;16.73;7.70;;;11.60;72.90;;;;;;2323905;54;20954;-73
2021/10/18 21:34:45;;;;;;;10.93;6.85;;;11.60;73.00;;;;;;2321327;54;21868;-72
2021/10/18 21:37:11;;;;;;;23.80;7.55;;;11.60;73.10;;;;;;2342962;53;20955;-71
2021/10/18 21:39:39;;;;;;;17.83;6.07;;;11.60;73.10;;;;;;2330037;54;20984;-71
2021/10/18 21:42:05;;;;;;;23.48;7.82;;;11.60;73.00;;;;;;2333833;53;21022;-70
2021/10/18 21:44:32;;;;;;;10.73;6.60;;;11.70;73.10;;;;;;2343483;53;21648;-72
2021/10/18 21:46:59;;;;;;;14.20;6.95;;;11.70;73.30;;;;;;2327009;54;21227;-73
2021/10/18 21:49:25;;;;;;;18.17;6.47;;;11.70;73.40;;;;;;2354367;53;21029;-71
2021/10/18 21:51:52;;;;;;;11.43;7.32;;;11.70;73.50;;;;;;2353720;53;20933;-71
2021/10/18 21:54:18;;;;;;;13.88;7.03;;;11.70;73.60;;;;;;2355298;53;20942;-71
2021/10/18 21:56:44;;;;;;;16.23;6.50;;;11.70;73.50;;;;;;2330802;54;20950;-71
2021/10/18 21:59:11;;;;;;;10.07;6.18;;;11.80;73.50;;;;;;2341351;53;21062;-71
2021/10/18 22:01:37;;;;;;;11.98;6.93;;;11.80;73.50;;;;;;2350826;53;20986;-72
2021/10/18 22:04:04;;;;;;;22.77;6.72;;;11.80;73.50;;;;;;2354956;53;20981;-74
2021/10/18 22:06:30;;;;;;;18.48;7.50;;;11.80;73.50;;;;;;2354523;53;20959;-73
2021/10/18 22:08:59;;;;;;;9.52;6.15;;;11.90;73.60;;;;;;2354257;53;20938;-69
2021/10/18 22:11:28;;;;;;;12.02;6.15;;;11.90;73.50;;;;;;2350421;53;21075;-73
2021/10/18 22:13:55;;;;;;;10.50;5.35;;;11.90;73.60;;;;;;2325336;54;20981;-71
2021/10/18 22:16:22;;;;;;;10.88;6.00;;;11.90;73.60;;;;;;2579603;52;20960;-74
2021/10/18 22:18:54;;;;;;;13.13;6.15;;;11.90;73.50;;;;;;2334167;53;20963;-74
2021/10/18 22:21:23;;;;;;;13.40;6.07;;;12.00;73.50;;;;;;2327697;54;20946;-73
2021/10/18 22:23:52;;;;;;;17.73;6.57;;;12.00;73.40;;;;;;2353158;53;20993;-73
2021/10/18 22:26:19;;;;;;;13.98;6.90;;;12.00;73.30;;;;;;2344010;53;21026;-72
2021/10/18 22:28:48;;;;;;;9.68;5.72;;;12.00;73.00;;;;;;2347247;53;20943;-71
2021/10/18 22:31:15;;;;;;;12.82;6.15;;;12.00;72.80;;;;;;2340155;53;21021;-70
2021/10/18 22:33:42;;;;;;;9.05;5.93;;;12.00;72.60;;;;;;2346496;53;21042;-71
2021/10/18 22:36:08;;;;;;;10.10;6.20;;;12.00;72.50;;;;;;2346359;53;20930;-73
2021/10/18 22:38:34;;;;;;;8.32;5.62;;;11.90;72.20;;;;;;2350681;53;21009;-72
2021/10/18 22:41:03;;;;;;;7.07;4.80;;;11.90;72.20;;;;;;2345620;53;21123;-71
2021/10/18 22:43:33;;;;;;;7.70;5.25;;;11.90;72.30;;;;;;2346553;53;20914;-71
2021/10/18 22:46:02;;;;;;;8.60;5.68;;;11.90;72.40;;;;;;2483900;53;21903;-73
2021/10/18 22:48:28;;;;;;;7.75;5.07;;;11.90;72.50;;;;;;2355376;53;21046;-73
2021/10/18 22:50:55;;;;;;;10.02;5.78;;;11.80;72.50;;;;;;2347671;53;20978;-71
2021/10/18 22:53:23;;;;;;;9.63;6.03;;;11.80;72.50;;;;;;2350372;53;21029;-72
2021/10/18 22:55:50;;;;;;;8.95;5.90;;;11.80;72.50;;;;;;2330160;54;21073;-71